createdAt,value
2022-09-21T00:01:31.229Z,1.65
2022-09-21T00:04:00.106Z,1.65
2022-09-21T00:06:28.225Z,1.23
2022-09-21T00:08:55.692Z,1.63
2022-09-21T00:11:27.032Z,1.40
2022-09-21T00:14:00.844Z,2.05
2022-09-21T00:16:28.506Z,1.90
2022-09-21T00:18:55.468Z,1.90
2022-09-21T00:21:22.335Z,1.48
2022-09-21T00:23:51.636Z,1.65
2022-09-21T00:26:25.292Z,1.17
2022-09-21T00:28:58.798Z,1.60
2022-09-21T00:31:26.653Z,1.27
2022-09-21T00:33:53.874Z,1.55
2022-09-21T00:38:54.878Z,1.23
2022-09-21T00:41:22.038Z,1.40
2022-09-21T00:44:25.254Z,2.15
2022-09-21T00:46:56.884Z,1.40
2022-09-21T00:49:27.098Z,1.60
2022-09-21T00:51:59.589Z,1.85
2022-09-21T00:54:30.515Z,2.17
2022-09-21T00:56:59.927Z,1.85
2022-09-21T01:01:58.632Z,1.48
2022-09-21T01:04:28.384Z,1.55
2022-09-21T01:07:00.011Z,1.58
2022-09-21T01:09:29.458Z,1.80
2022-09-21T01:14:34.865Z,1.65
2022-09-21T01:17:15.257Z,1.85
2022-09-21T01:19:57.332Z,1.90
2022-09-21T01:22:38.955Z,1.80
2022-09-21T01:25:33.058Z,2.15
2022-09-21T01:28:29.330Z,1.48
2022-09-21T01:30:59.733Z,1.77
2022-09-21T01:33:50.963Z,1.60
2022-09-21T01:36:21.508Z,1.58
2022-09-21T01:38:54.294Z,1.85
2022-09-21T01:41:28.122Z,1.67
2022-09-21T01:43:59.566Z,2.03
2022-09-21T01:46:30.827Z,1.63
2022-09-21T01:49:00.906Z,1.73
2022-09-21T01:51:32.918Z,1.80
2022-09-21T01:54:10.154Z,1.60
2022-09-21T01:56:42.012Z,1.80
2022-09-21T01:59:30.541Z,1.58
2022-09-21T02:02:00.529Z,2.10
2022-09-21T02:04:27.381Z,2.20
2022-09-21T02:06:54.141Z,2.22
2022-09-21T02:09:23.779Z,1.75
2022-09-21T02:11:52.726Z,1.63
2022-09-21T02:14:24.094Z,2.33
2022-09-21T02:17:06.127Z,2.25
2022-09-21T02:19:57.868Z,1.95
2022-09-21T02:22:33.945Z,2.10
2022-09-21T02:25:18.594Z,1.80
2022-09-21T02:28:01.203Z,1.45
2022-09-21T02:30:28.142Z,2.00
2022-09-21T02:33:13.568Z,1.90
2022-09-21T02:35:45.393Z,2.22
2022-09-21T02:38:33.275Z,2.20
2022-09-21T02:41:06.988Z,2.00
2022-09-21T02:43:45.440Z,1.90
2022-09-21T02:46:19.864Z,1.50
2022-09-21T02:48:51.669Z,1.88
2022-09-21T02:51:25.938Z,1.92
2022-09-21T02:53:54.003Z,2.03
2022-09-21T02:56:21.588Z,2.03
2022-09-21T02:58:51.172Z,1.52
2022-09-21T03:01:19.029Z,1.70
2022-09-21T03:03:45.788Z,1.90
2022-09-21T03:06:15.223Z,2.08
2022-09-21T03:11:09.128Z,1.67
2022-09-21T03:13:36.776Z,2.33
2022-09-21T03:16:07.481Z,2.05
2022-09-21T03:18:36.648Z,2.60
2022-09-21T03:21:03.606Z,1.95
2022-09-21T03:23:30.393Z,2.20
2022-09-21T03:25:57.157Z,2.08
2022-09-21T03:28:24.497Z,2.03
2022-09-21T03:30:54.664Z,1.90
2022-09-21T03:33:21.792Z,1.90
2022-09-21T03:35:50.789Z,1.73
2022-09-21T03:38:18.872Z,2.03
2022-09-21T03:40:51.770Z,2.22
2022-09-21T03:43:21.233Z,2.50
2022-09-21T03:45:50.021Z,1.90
2022-09-21T03:48:19.027Z,2.42
2022-09-21T03:50:48.031Z,1.90
2022-09-21T03:53:15.252Z,1.80
2022-09-21T03:55:42.138Z,2.20
2022-09-21T03:58:09.088Z,2.05
2022-09-21T04:00:36.824Z,2.25
2022-09-21T04:03:03.821Z,2.72
2022-09-21T04:05:32.763Z,2.20
2022-09-21T04:08:02.085Z,2.17
2022-09-21T04:10:32.889Z,2.35
2022-09-21T04:13:04.862Z,3.25
2022-09-21T04:15:34.098Z,2.80
2022-09-21T04:18:00.893Z,2.50
2022-09-21T04:20:27.633Z,2.60
2022-09-21T04:22:54.622Z,2.42
2022-09-21T04:25:21.292Z,2.38
2022-09-21T04:27:50.200Z,2.42
2022-09-21T04:30:17.162Z,2.67
2022-09-21T04:32:48.674Z,2.72
2022-09-21T04:35:17.901Z,2.50
2022-09-21T04:37:44.571Z,4.40
2022-09-21T04:40:11.277Z,3.13
2022-09-21T04:42:40.386Z,3.13
2022-09-21T04:45:07.916Z,2.92
2022-09-21T04:47:36.690Z,2.67
2022-09-21T04:50:03.508Z,3.47
2022-09-21T04:52:32.707Z,2.58
2022-09-21T04:54:59.537Z,2.90
2022-09-21T04:57:28.605Z,3.10
2022-09-21T04:59:55.373Z,3.22
2022-09-21T05:02:22.475Z,2.60
2022-09-21T05:04:51.152Z,2.88
2022-09-21T05:07:20.818Z,2.70
2022-09-21T05:12:32.830Z,2.85
2022-09-21T05:15:02.440Z,2.90
2022-09-21T05:17:29.248Z,2.95
2022-09-21T05:19:58.177Z,3.03
2022-09-21T05:22:27.881Z,3.17
2022-09-21T05:24:57.283Z,3.30
2022-09-21T05:27:29.120Z,3.00
2022-09-21T05:29:56.212Z,2.83
2022-09-21T05:32:34.259Z,2.90
2022-09-21T05:35:07.372Z,3.10
2022-09-21T05:37:48.210Z,2.63
2022-09-21T05:40:18.505Z,2.67
2022-09-21T05:42:50.315Z,2.80
2022-09-21T05:45:18.698Z,2.85
2022-09-21T05:48:06.035Z,3.10
2022-09-21T05:50:50.992Z,2.83
2022-09-21T05:53:54.403Z,2.97
2022-09-21T05:56:30.266Z,5.35
2022-09-21T05:59:22.416Z,2.53
2022-09-21T06:02:05.133Z,3.50
2022-09-21T06:04:32.144Z,3.35
2022-09-21T06:06:58.883Z,3.10
2022-09-21T06:09:26.802Z,3.45
2022-09-21T06:11:53.840Z,3.65
2022-09-21T06:14:26.546Z,4.03
2022-09-21T06:16:55.639Z,4.10
2022-09-21T06:19:22.382Z,4.07
2022-09-21T06:21:49.355Z,3.78
2022-09-21T06:24:18.221Z,3.97
2022-09-21T06:26:47.320Z,4.80
2022-09-21T06:29:17.542Z,4.53
2022-09-21T06:31:44.246Z,4.72
2022-09-21T06:34:13.475Z,4.90
2022-09-21T06:36:47.971Z,4.15
2022-09-21T06:39:17.375Z,4.22
2022-09-21T06:41:47.422Z,4.25
2022-09-21T06:44:16.019Z,4.50
2022-09-21T06:46:42.893Z,4.15
2022-09-21T06:49:12.253Z,3.78
2022-09-21T06:51:41.513Z,3.75
2022-09-21T06:54:08.346Z,4.90
2022-09-21T06:56:37.851Z,3.72
2022-09-21T06:59:04.751Z,4.05
2022-09-21T07:01:37.198Z,3.72
2022-09-21T07:04:03.959Z,3.50
2022-09-21T07:06:32.875Z,3.60
2022-09-21T07:11:50.947Z,3.35
2022-09-21T07:14:20.375Z,2.78
2022-09-21T07:19:16.167Z,2.45
2022-09-21T07:21:42.917Z,2.63
2022-09-21T07:24:15.440Z,2.00
2022-09-21T07:26:46.967Z,2.70
2022-09-21T07:31:44.688Z,2.30
2022-09-21T07:34:16.604Z,2.97
2022-09-21T07:36:45.802Z,2.10
2022-09-21T07:39:12.528Z,2.38
2022-09-21T07:41:39.192Z,2.20
2022-09-21T07:44:06.004Z,2.25
2022-09-21T07:46:32.756Z,2.03
2022-09-21T07:48:59.480Z,2.40
2022-09-21T07:51:26.144Z,2.22
2022-09-21T07:53:56.919Z,2.30
2022-09-21T07:56:23.585Z,2.47
2022-09-21T07:59:08.395Z,2.13
2022-09-21T08:01:40.492Z,2.33
2022-09-21T08:04:13.801Z,2.05
2022-09-21T08:06:40.614Z,1.90
2022-09-21T08:09:08.524Z,1.73
2022-09-21T08:11:38.320Z,1.80
2022-09-21T08:14:07.443Z,1.73
2022-09-21T08:16:38.206Z,1.48
2022-09-21T08:19:05.554Z,1.40
2022-09-21T08:21:32.357Z,1.73
2022-09-21T08:23:59.090Z,1.65
2022-09-21T08:26:26.302Z,1.17
2022-09-21T08:28:53.841Z,1.15
2022-09-21T08:31:24.492Z,1.10
2022-09-21T08:33:54.767Z,1.02
2022-09-21T08:36:23.858Z,1.45
2022-09-21T08:38:50.928Z,1.83
2022-09-21T08:41:17.735Z,1.48
2022-09-21T08:43:46.022Z,1.50
2022-09-21T08:46:17.318Z,1.10
2022-09-21T08:49:10.205Z,1.17
2022-09-21T08:51:38.797Z,1.58
2022-09-21T08:54:19.644Z,0.75
2022-09-21T08:57:04.452Z,1.10
2022-09-21T08:59:32.046Z,1.52
2022-09-21T09:02:13.553Z,1.23
2022-09-21T09:04:51.868Z,1.23
2022-09-21T09:07:41.807Z,1.40
2022-09-21T09:10:14.508Z,1.15
2022-09-21T09:12:47.102Z,1.20
2022-09-21T09:15:16.899Z,0.70
2022-09-21T09:17:59.306Z,1.05
2022-09-21T09:20:39.560Z,1.17
2022-09-21T09:23:18.487Z,1.20
2022-09-21T09:25:47.585Z,1.10
2022-09-21T09:28:20.376Z,1.02
2022-09-21T09:30:53.131Z,0.80
2022-09-21T09:33:29.258Z,1.20
2022-09-21T09:36:02.428Z,1.10
2022-09-21T09:38:44.292Z,1.13
2022-09-21T09:41:30.043Z,1.00
2022-09-21T09:44:28.079Z,1.17
2022-09-21T09:47:32.426Z,1.00
2022-09-21T09:50:06.641Z,0.80
2022-09-21T09:52:36.249Z,0.95
2022-09-21T09:55:21.632Z,1.02
2022-09-21T09:57:50.874Z,0.75
2022-09-21T10:02:50.614Z,0.88
2022-09-21T10:05:41.154Z,0.70
2022-09-21T10:08:42.056Z,0.90
2022-09-21T10:11:12.804Z,0.70
2022-09-21T10:13:46.145Z,0.80
2022-09-21T10:16:24.398Z,1.08
2022-09-21T10:18:56.476Z,0.95
2022-09-21T10:21:35.551Z,0.77
2022-09-21T10:24:05.976Z,0.60
2022-09-21T10:26:57.529Z,0.60
2022-09-21T10:29:30.834Z,0.82
2022-09-21T10:32:29.859Z,0.70
2022-09-21T10:35:07.197Z,0.60
2022-09-21T10:37:35.876Z,0.63
2022-09-21T10:40:04.069Z,0.40
2022-09-21T10:42:35.544Z,0.50
2022-09-21T10:45:13.116Z,0.68
2022-09-21T10:47:43.566Z,0.50
2022-09-21T10:50:35.249Z,0.40
2022-09-21T10:53:10.677Z,1.00
2022-09-21T10:55:52.590Z,0.50
2022-09-21T10:58:27.420Z,0.30
2022-09-21T11:03:31.280Z,0.40
2022-09-21T11:06:04.956Z,0.40
2022-09-21T11:09:01.198Z,0.30
2022-09-21T11:11:30.126Z,0.30
2022-09-21T11:14:05.060Z,0.40
2022-09-21T11:16:37.195Z,0.47
2022-09-21T11:19:24.640Z,0.35
2022-09-21T11:22:13.220Z,0.30
2022-09-21T11:25:01.892Z,0.30
2022-09-21T11:27:33.752Z,0.20
2022-09-21T11:30:15.436Z,0.30
2022-09-21T11:33:06.661Z,0.40
2022-09-21T11:35:42.551Z,0.32
2022-09-21T11:38:09.965Z,0.30
2022-09-21T11:40:53.279Z,0.15
2022-09-21T11:43:44.868Z,0.22
2022-09-21T11:46:20.536Z,0.20
2022-09-21T11:49:19.653Z,0.30
2022-09-21T11:51:46.293Z,0.30
2022-09-21T11:54:46.651Z,0.30
2022-09-21T11:57:18.843Z,0.20
2022-09-21T11:59:51.206Z,0.22
2022-09-21T12:03:06.428Z,0.22
2022-09-21T12:05:50.768Z,0.20
2022-09-21T12:08:50.455Z,0.30
2022-09-21T12:11:31.664Z,0.30
2022-09-21T12:17:09.300Z,0.20
2022-09-21T12:19:44.890Z,0.25
2022-09-21T12:22:28.894Z,0.20
2022-09-21T12:25:16.995Z,0.20
2022-09-21T12:27:48.928Z,0.20
2022-09-21T12:30:23.378Z,0.30
2022-09-21T12:33:17.758Z,0.57
2022-09-21T12:36:18.657Z,0.20
2022-09-21T12:39:13.695Z,0.30
2022-09-21T12:41:43.654Z,0.20
2022-09-21T12:44:20.637Z,0.10
2022-09-21T12:46:57.408Z,0.20
2022-09-21T12:49:33.489Z,0.20
2022-09-21T12:52:07.228Z,0.20
2022-09-21T12:54:44.363Z,0.20
2022-09-21T12:57:49.318Z,0.20
2022-09-21T13:00:19.770Z,0.20
2022-09-21T13:02:53.782Z,0.20
2022-09-21T13:05:38.439Z,0.20
2022-09-21T13:08:13.637Z,0.30
2022-09-21T13:10:55.907Z,0.40
2022-09-21T13:13:51.357Z,0.30
2022-09-21T13:16:32.603Z,0.20
2022-09-21T13:19:22.258Z,0.20
2022-09-21T13:22:29.205Z,0.20
2022-09-21T13:25:18.728Z,0.20
2022-09-21T13:28:20.072Z,0.20
2022-09-21T13:31:39.417Z,0.30
2022-09-21T13:34:09.664Z,0.40
2022-09-21T13:36:39.264Z,0.20
2022-09-21T13:39:09.892Z,0.35
2022-09-21T13:42:01.905Z,0.20
2022-09-21T13:44:42.452Z,0.28
2022-09-21T13:47:14.307Z,0.20
2022-09-21T13:49:45.200Z,0.30
2022-09-21T13:52:15.772Z,0.30
2022-09-21T13:54:45.499Z,0.30
2022-09-21T13:57:32.825Z,0.20
2022-09-21T14:00:12.888Z,0.20
2022-09-21T14:02:47.495Z,0.20
2022-09-21T14:05:26.371Z,0.30
2022-09-21T14:10:35.793Z,0.20
2022-09-21T14:13:07.588Z,0.30
2022-09-21T14:15:37.851Z,0.20
2022-09-21T14:18:17.125Z,0.20
2022-09-21T14:21:09.889Z,0.25
2022-09-21T14:23:39.372Z,0.22
2022-09-21T14:26:37.497Z,0.20
2022-09-21T14:29:12.786Z,0.20
2022-09-21T14:31:41.790Z,0.20
2022-09-21T14:34:15.918Z,0.20
2022-09-21T14:36:45.811Z,0.15
2022-09-21T14:39:35.304Z,0.28
2022-09-21T14:42:20.164Z,0.20
2022-09-21T14:44:51.417Z,0.10
2022-09-21T14:47:25.482Z,0.20
2022-09-21T14:50:15.208Z,0.20
2022-09-21T14:52:57.419Z,0.10
2022-09-21T14:55:45.856Z,0.20
2022-09-21T14:58:35.091Z,0.20
2022-09-21T15:01:34.414Z,0.20
2022-09-21T15:04:19.081Z,0.20
2022-09-21T15:07:21.318Z,0.10
2022-09-21T15:10:25.520Z,0.13
2022-09-21T15:13:01.800Z,0.40
2022-09-21T15:15:38.064Z,0.20
2022-09-21T15:18:20.498Z,0.10
2022-09-21T15:21:01.474Z,0.20
2022-09-21T15:23:33.464Z,0.20
2022-09-21T15:26:13.957Z,0.10
2022-09-21T15:29:08.445Z,0.30
2022-09-21T15:31:38.228Z,0.20
2022-09-21T15:34:09.565Z,0.20
2022-09-21T15:36:39.364Z,0.20
2022-09-21T15:39:23.541Z,0.20
2022-09-21T15:42:18.519Z,0.40
2022-09-21T15:44:49.061Z,0.30
2022-09-21T15:47:20.958Z,0.32
2022-09-21T15:49:48.130Z,0.30
2022-09-21T15:52:40.334Z,0.20
2022-09-21T15:55:25.386Z,0.35
2022-09-21T15:57:56.400Z,0.20
2022-09-21T16:00:26.703Z,0.20
2022-09-21T16:03:05.935Z,0.20
2022-09-21T16:05:55.427Z,0.20
2022-09-21T16:08:31.126Z,0.20
2022-09-21T16:11:19.065Z,0.20
2022-09-21T16:14:05.805Z,0.30
2022-09-21T16:16:32.784Z,0.30
2022-09-21T16:19:02.124Z,0.30
2022-09-21T16:21:37.745Z,0.20
2022-09-21T16:24:12.396Z,0.20
2022-09-21T16:26:42.031Z,0.30
2022-09-21T16:29:09.113Z,0.25
2022-09-21T16:31:36.232Z,0.60
2022-09-21T16:34:23.267Z,0.60
2022-09-21T16:36:51.813Z,0.70
2022-09-21T16:39:19.934Z,0.88
2022-09-21T16:42:05.811Z,0.70
2022-09-21T16:44:40.239Z,0.52
2022-09-21T16:47:13.269Z,0.57
2022-09-21T16:49:40.052Z,0.43
2022-09-21T16:52:07.575Z,0.57
2022-09-21T16:54:39.034Z,0.45
2022-09-21T16:57:06.483Z,0.30
2022-09-21T16:59:36.597Z,0.88
2022-09-21T17:02:06.061Z,0.60
2022-09-21T17:04:34.504Z,0.70
2022-09-21T17:07:03.359Z,0.60
2022-09-21T17:09:35.497Z,0.60
2022-09-21T17:12:04.151Z,0.50
2022-09-21T17:14:44.322Z,0.40
2022-09-21T17:17:27.922Z,0.55
2022-09-21T17:19:57.136Z,0.95
2022-09-21T17:22:30.419Z,0.50
2022-09-21T17:24:59.356Z,0.70
2022-09-21T17:27:29.123Z,0.40
2022-09-21T17:29:56.554Z,0.43
2022-09-21T17:32:26.724Z,0.50
2022-09-21T17:35:15.260Z,0.60
2022-09-21T17:37:44.715Z,0.52
2022-09-21T17:40:15.147Z,0.57
2022-09-21T17:42:46.506Z,2.42
2022-09-21T17:45:25.180Z,1.20
2022-09-21T17:47:52.441Z,2.63
2022-09-21T17:50:23.310Z,5.63
2022-09-21T17:53:08.954Z,2.70
2022-09-21T17:55:35.905Z,1.73
2022-09-21T17:58:34.492Z,1.95
2022-09-21T18:01:07.494Z,3.78
2022-09-21T18:03:41.218Z,0.90
2022-09-21T18:06:12.940Z,1.75
2022-09-21T18:08:43.187Z,1.88
2022-09-21T18:11:37.214Z,1.20
2022-09-21T18:14:17.401Z,1.85
2022-09-21T18:17:02.808Z,0.70
2022-09-21T18:20:10.938Z,1.75
2022-09-21T18:22:40.527Z,0.95
2022-09-21T18:25:16.035Z,1.85
2022-09-21T18:27:48.144Z,0.70
2022-09-21T18:30:19.996Z,2.95
2022-09-21T18:35:34.929Z,2.90
2022-09-21T18:38:40.987Z,1.02
2022-09-21T18:41:17.899Z,2.03
2022-09-21T18:43:50.564Z,3.20
2022-09-21T18:46:21.437Z,1.15
2022-09-21T18:48:53.563Z,1.30
2022-09-21T18:51:22.976Z,2.85
2022-09-21T18:53:58.313Z,1.38
2022-09-21T18:56:34.115Z,1.27
2022-09-21T18:59:03.532Z,4.07
2022-09-21T19:01:34.010Z,1.73
2022-09-21T19:04:01.538Z,2.80
2022-09-21T19:06:57.155Z,1.63
2022-09-21T19:09:42.213Z,1.27
2022-09-21T19:12:21.444Z,0.60
2022-09-21T19:17:39.129Z,0.70
2022-09-21T19:20:33.134Z,1.30
2022-09-21T19:23:28.187Z,1.45
2022-09-21T19:26:38.468Z,1.42
2022-09-21T19:29:26.510Z,1.45
2022-09-21T19:31:55.552Z,1.25
2022-09-21T19:34:28.130Z,0.90
2022-09-21T19:36:57.330Z,1.77
2022-09-21T19:39:24.191Z,1.60
2022-09-21T19:42:02.174Z,1.10
2022-09-21T19:44:34.899Z,1.35
2022-09-21T19:47:16.947Z,1.15
2022-09-21T19:49:49.638Z,1.42
2022-09-21T19:52:22.445Z,1.52
2022-09-21T19:55:10.200Z,1.52
2022-09-21T19:58:00.133Z,1.27
2022-09-21T20:00:29.387Z,3.45
2022-09-21T20:03:11.100Z,1.60
2022-09-21T20:05:47.755Z,1.50
2022-09-21T20:08:29.448Z,1.65
2022-09-21T20:11:02.079Z,1.00
2022-09-21T20:13:57.922Z,0.93
2022-09-21T20:16:37.743Z,1.70
2022-09-21T20:19:15.132Z,1.50
2022-09-21T20:21:43.269Z,1.00
2022-09-21T20:24:19.826Z,1.48
2022-09-21T20:26:53.584Z,1.00
2022-09-21T20:29:23.258Z,1.48
2022-09-21T20:31:52.767Z,1.23
2022-09-21T20:34:22.247Z,1.30
2022-09-21T20:36:53.929Z,1.10
2022-09-21T20:39:20.857Z,1.02
2022-09-21T20:41:47.526Z,1.20
2022-09-21T20:44:14.303Z,1.10
2022-09-21T20:46:40.982Z,1.20
2022-09-21T20:49:15.316Z,1.88
2022-09-21T20:51:45.415Z,1.27
2022-09-21T20:54:13.502Z,1.50
2022-09-21T20:56:40.934Z,1.50
2022-09-21T20:59:09.831Z,1.70
2022-09-21T21:01:36.622Z,1.05
2022-09-21T21:04:03.870Z,0.82
2022-09-21T21:06:34.080Z,1.55
2022-09-21T21:09:01.033Z,1.52
2022-09-21T21:11:30.029Z,1.20
2022-09-21T21:13:56.829Z,1.00
2022-09-21T21:16:23.928Z,1.67
2022-09-21T21:18:52.893Z,1.33
2022-09-21T21:21:21.626Z,2.08
2022-09-21T21:24:10.077Z,1.00
2022-09-21T21:27:00.781Z,0.98
2022-09-21T21:29:26.633Z,0.90
2022-09-21T21:31:53.433Z,1.35
2022-09-21T21:34:20.757Z,0.90
2022-09-21T21:36:48.165Z,1.00
2022-09-21T21:39:17.158Z,0.90
2022-09-21T21:41:43.875Z,1.27
2022-09-21T21:44:11.527Z,0.90
2022-09-21T21:46:41.428Z,0.93
2022-09-21T21:49:08.123Z,1.25
2022-09-21T21:51:34.792Z,1.35
2022-09-21T21:54:01.545Z,1.15
2022-09-21T21:56:33.051Z,1.10
2022-09-21T21:58:59.710Z,1.25
2022-09-21T22:01:29.760Z,1.05
2022-09-21T22:24:16.058Z,1.08
2022-09-21T22:26:44.321Z,1.10
2022-09-21T22:29:14.981Z,0.90
2022-09-21T22:31:45.980Z,0.80
2022-09-21T22:34:15.565Z,1.38
2022-09-21T22:36:45.626Z,0.80
2022-09-21T22:39:15.354Z,0.77
2022-09-21T22:41:42.821Z,0.80
2022-09-21T22:44:10.488Z,1.20
2022-09-21T22:46:39.961Z,1.05
2022-09-21T22:49:09.719Z,1.08
2022-09-21T22:51:38.013Z,1.02
2022-09-21T22:54:07.278Z,1.27
2022-09-21T22:56:38.947Z,0.95
2022-09-21T22:59:05.793Z,0.90
2022-09-21T23:01:37.535Z,0.90
2022-09-21T23:04:09.712Z,0.98
2022-09-21T23:06:40.741Z,1.20
2022-09-21T23:09:15.114Z,1.13
2022-09-21T23:11:43.905Z,1.40
2022-09-21T23:14:11.687Z,1.02
2022-09-21T23:16:40.664Z,1.00
2022-09-21T23:19:15.482Z,1.38
2022-09-21T23:21:44.322Z,1.40
2022-09-21T23:24:10.966Z,1.00
2022-09-21T23:26:37.815Z,1.30
2022-09-21T23:31:36.018Z,1.30
2022-09-21T23:34:08.552Z,1.20
2022-09-21T23:36:37.565Z,1.10
2022-09-21T23:39:08.036Z,1.13
2022-09-21T23:41:36.414Z,1.60
2022-09-21T23:44:06.043Z,1.00
2022-09-21T23:46:35.331Z,1.42
2022-09-21T23:51:30.032Z,1.60
2022-09-21T23:53:57.822Z,1.20
2022-09-21T23:56:25.152Z,1.15
2022-09-21T23:58:52.344Z,1.35
